Time;durP1;ratioP1;P1;durP2;ratioP2;P2;SDS_P1;SDS_P2;PMS_P1;PMS_P2;Temp;Humidity;BMP_temperature;BMP_pressure;BME280_temperature;BME280_humidity;BME280_pressure;Samples;Min_cycle;Max_cycle;Signal;HPM_P1;HPM_P2
2023/07/10 00:00:22;;;;;;;;;;;;;;;23.29;59.83;101079.47;7396912;19;1667;-55
2023/07/10 00:02:50;;;;;;;;;;;;;;;23.27;59.73;101091.44;7396534;19;1950;-55
2023/07/10 00:05:22;;;;;;;;;;;;;;;23.20;59.77;101081.28;7396205;19;1848;-55
2023/07/10 00:07:50;;;;;;;;;;;;;;;23.19;59.71;101065.25;7397546;19;1496;-55
2023/07/10 00:10:19;;;;;;;;;;;;;;;23.20;59.70;101077.75;7397083;19;1893;-55
2023/07/10 00:12:47;;;;;;;;;;;;;;;23.16;59.75;101069.09;7398477;19;1452;-56
2023/07/10 00:15:18;;;;;;;;;;;;;;;23.23;59.33;101089.03;7399014;19;1108;-55
2023/07/10 00:17:46;;;;;;;;;;;;;;;23.21;59.65;101063.22;7396277;19;1287;-58
2023/07/10 00:20:15;;;;;;;;;;;;;;;23.19;59.79;101084.97;7396570;19;1397;-55
2023/07/10 00:22:46;;;;;;;;;;;;;;;23.24;59.89;101087.22;7396049;19;1882;-55
2023/07/10 00:25:16;;;;;;;;;;;;;;;23.26;59.78;101078.94;7396998;19;1189;-55
2023/07/10 00:27:45;;;;;;;;;;;;;;;23.27;59.60;101080.66;7396732;19;1346;-55
2023/07/10 00:30:18;;;;;;;;;;;;;;;23.26;59.36;101076.25;7397127;19;1123;-55
2023/07/10 00:32:47;;;;;;;;;;;;;;;23.22;59.54;101073.88;7395202;19;1242;-55
2023/07/10 00:35:17;;;;;;;;;;;;;;;23.23;59.59;101080.94;7395541;19;1286;-55
2023/07/10 00:38:01;;;;;;;;;;;;;;;23.21;59.70;101090.22;7397632;19;1794;-55
2023/07/10 00:40:30;;;;;;;;;;;;;;;23.23;59.80;101080.94;7396297;19;1525;-55
2023/07/10 00:43:02;;;;;;;;;;;;;;;23.25;59.95;101083.50;7392587;19;3102;-55
2023/07/10 00:45:30;;;;;;;;;;;;;;;23.32;59.71;101083.75;7398122;19;1002;-55
2023/07/10 00:48:03;;;;;;;;;;;;;;;23.32;59.75;101083.75;7400725;19;1509;-55
2023/07/10 00:50:34;;;;;;;;;;;;;;;23.27;59.47;101077.97;7402301;19;1808;-55
2023/07/10 00:53:08;;;;;;;;;;;;;;;23.28;59.62;101099.38;7404614;19;1718;-55
2023/07/10 00:55:39;;;;;;;;;;;;;;;23.26;59.64;101090.59;7403966;19;1493;-55
2023/07/10 00:58:08;;;;;;;;;;;;;;;23.26;59.59;101098.69;7403604;19;1737;-55
2023/07/10 01:00:37;;;;;;;;;;;;;;;23.20;59.56;101102.88;7400600;19;1378;-55
2023/07/10 01:03:06;;;;;;;;;;;;;;;23.18;59.52;101085.16;7396887;19;1892;-55
2023/07/10 01:05:34;;;;;;;;;;;;;;;23.14;59.48;101083.72;7403856;19;1151;-55
2023/07/10 01:08:06;;;;;;;;;;;;;;;23.12;59.42;101086.59;7401311;19;2024;-55
2023/07/10 01:10:34;;;;;;;;;;;;;;;23.11;59.42;101089.44;7403929;19;1849;-55
2023/07/10 01:13:02;;;;;;;;;;;;;;;23.10;59.37;101090.44;7401162;19;1857;-55
2023/07/10 01:15:31;;;;;;;;;;;;;;;23.09;59.39;101086.06;7403930;19;1397;-55
2023/07/10 01:17:59;;;;;;;;;;;;;;;23.00;59.40;101083.25;7401180;19;1900;-55
2023/07/10 01:20:45;;;;;;;;;;;;;;;23.03;59.40;101085.66;7401466;19;1492;-55
2023/07/10 01:23:16;;;;;;;;;;;;;;;23.02;59.26;101070.50;7399424;19;1859;-56
2023/07/10 01:25:50;;;;;;;;;;;;;;;23.00;59.12;101077.88;7403890;19;1766;-55
2023/07/10 01:28:19;;;;;;;;;;;;;;;23.06;59.26;101092.63;7403303;19;1729;-56
2023/07/10 01:30:49;;;;;;;;;;;;;;;23.07;59.41;101091.59;7402949;19;1424;-56
2023/07/10 01:33:20;;;;;;;;;;;;;;;23.19;58.91;101094.91;7401298;19;1833;-56
2023/07/10 01:35:49;;;;;;;;;;;;;;;23.10;59.05;101085.03;7401415;19;1366;-55
2023/07/10 01:38:20;;;;;;;;;;;;;;;23.06;58.93;101078.25;7400539;19;1584;-54
2023/07/10 01:40:51;;;;;;;;;;;;;;;23.15;59.02;101090.84;7400530;19;1121;-77
2023/07/10 01:43:19;;;;;;;;;;;;;;;23.20;58.89;101080.44;7400183;19;1841;-67
2023/07/10 01:45:49;;;;;;;;;;;;;;;23.21;58.44;101092.91;7401811;19;1675;-60
2023/07/10 01:48:19;;;;;;;;;;;;;;;23.13;58.14;101073.97;7402611;19;1579;-56
2023/07/10 01:50:47;;;;;;;;;;;;;;;23.04;57.94;101075.75;7400676;19;1767;-55
2023/07/10 01:53:16;;;;;;;;;;;;;;;22.99;58.49;101067.22;7403038;19;1690;-55
2023/07/10 01:55:48;;;;;;;;;;;;;;;22.97;58.37;101080.84;7402345;19;1925;-55
2023/07/10 01:58:16;;;;;;;;;;;;;;;22.95;58.50;101092.81;7401864;19;1758;-56
2023/07/10 02:00:44;;;;;;;;;;;;;;;22.98;58.56;101085.28;7400177;19;1789;-55
2023/07/10 02:03:13;;;;;;;;;;;;;;;22.99;58.45;101084.25;7401638;19;1847;-55
2023/07/10 02:05:41;;;;;;;;;;;;;;;22.96;58.32;101084.56;7402359;19;2077;-55
2023/07/10 02:08:09;;;;;;;;;;;;;;;22.95;58.60;101088.25;7402217;19;1832;-55
2023/07/10 02:10:37;;;;;;;;;;;;;;;22.97;58.58;101086.25;7400691;19;1556;-55
2023/07/10 02:13:08;;;;;;;;;;;;;;;22.97;58.31;101097.03;7401772;19;1355;-55
2023/07/10 02:15:36;;;;;;;;;;;;;;;22.92;58.46;101087.72;7401201;19;1457;-55
2023/07/10 02:18:05;;;;;;;;;;;;;;;22.94;58.60;101097.38;7401396;19;1531;-55
2023/07/10 02:20:33;;;;;;;;;;;;;;;22.98;58.60;101092.53;7400524;19;1512;-55
2023/07/10 02:23:02;;;;;;;;;;;;;;;23.02;58.64;101105.56;7398954;19;1859;-55
2023/07/10 02:25:30;;;;;;;;;;;;;;;23.06;58.54;101102.53;7398530;19;1559;-55
2023/07/10 02:27:58;;;;;;;;;;;;;;;23.11;58.50;101103.78;7400756;19;1497;-55
2023/07/10 02:30:29;;;;;;;;;;;;;;;23.06;58.45;101083.66;7400001;19;1381;-55
2023/07/10 02:32:58;;;;;;;;;;;;;;;23.07;58.33;101096.16;7400481;19;1520;-55
2023/07/10 02:35:26;;;;;;;;;;;;;;;23.02;58.46;101089.38;7399693;19;1731;-55
2023/07/10 02:37:54;;;;;;;;;;;;;;;22.98;58.37;101098.75;7399220;19;1282;-55
2023/07/10 02:40:22;;;;;;;;;;;;;;;22.97;58.16;101096.19;7399874;19;1441;-55
2023/07/10 02:42:51;;;;;;;;;;;;;;;22.92;58.17;101103.88;7397168;19;1899;-55
2023/07/10 02:45:19;;;;;;;;;;;;;;;22.91;58.23;101116.53;7400384;19;1284;-55
2023/07/10 02:47:50;;;;;;;;;;;;;;;22.89;58.32;101110.44;7400186;19;1544;-55
2023/07/10 02:50:18;;;;;;;;;;;;;;;22.90;58.22;101122.06;7400476;19;1832;-55
2023/07/10 02:52:47;;;;;;;;;;;;;;;22.88;58.25;101124.94;7400170;19;1809;-55
2023/07/10 02:55:15;;;;;;;;;;;;;;;22.88;58.44;101134.88;7401478;19;1417;-55
2023/07/10 02:57:43;;;;;;;;;;;;;;;22.93;58.34;101116.38;7400162;19;1477;-55
2023/07/10 03:00:12;;;;;;;;;;;;;;;23.01;58.28;101116.47;7399693;19;1125;-56
2023/07/10 03:02:40;;;;;;;;;;;;;;;23.04;58.29;101135.09;7399159;19;1836;-56
2023/07/10 03:05:11;;;;;;;;;;;;;;;23.00;58.42;101125.56;7399814;19;1853;-55
2023/07/10 03:07:39;;;;;;;;;;;;;;;22.94;58.27;101126.16;7400114;19;1952;-55
2023/07/10 03:10:09;;;;;;;;;;;;;;;22.94;58.48;101145.91;7397857;19;1437;-55
2023/07/10 03:12:38;;;;;;;;;;;;;;;22.94;58.38;101143.22;7399954;19;1757;-55
2023/07/10 03:15:06;;;;;;;;;;;;;;;22.87;58.21;101134.03;7399131;19;1738;-55
2023/07/10 03:17:35;;;;;;;;;;;;;;;22.91;58.48;101145.38;7399058;19;1390;-55
2023/07/10 03:20:03;;;;;;;;;;;;;;;23.00;58.43;101139.06;7398845;19;1529;-55
2023/07/10 03:22:34;;;;;;;;;;;;;;;23.13;58.79;101139.53;7397913;19;1877;-55
2023/07/10 03:25:02;;;;;;;;;;;;;;;23.22;57.85;101140.50;7399346;19;1144;-55
2023/07/10 03:27:31;;;;;;;;;;;;;;;23.30;57.44;101129.75;7398561;19;1936;-55
2023/07/10 03:29:59;;;;;;;;;;;;;;;23.31;57.39;101147.63;7398417;19;1564;-56
2023/07/10 03:32:27;;;;;;;;;;;;;;;23.35;56.83;101132.81;7397763;19;1876;-55
2023/07/10 03:34:57;;;;;;;;;;;;;;;23.31;56.90;101147.63;7398155;19;1262;-55
2023/07/10 03:37:25;;;;;;;;;;;;;;;23.23;56.93;101144.88;7397409;19;1215;-55
2023/07/10 03:39:56;;;;;;;;;;;;;;;23.31;56.79;101141.41;7398184;19;1663;-55
2023/07/10 03:42:24;;;;;;;;;;;;;;;23.47;56.27;101149.63;7396984;19;1845;-55
2023/07/10 03:44:53;;;;;;;;;;;;;;;23.46;56.28;101161.44;7399058;19;1334;-55
2023/07/10 03:47:21;;;;;;;;;;;;;;;23.48;56.32;101148.63;7395545;19;1847;-55
2023/07/10 03:49:50;;;;;;;;;;;;;;;23.54;56.46;101157.97;7397761;19;1460;-55
2023/07/10 03:52:18;;;;;;;;;;;;;;;23.47;55.82;101140.69;7398292;19;1480;-55
2023/07/10 03:54:47;;;;;;;;;;;;;;;23.53;55.98;101167.91;7399587;19;1343;-55
2023/07/10 03:57:18;;;;;;;;;;;;;;;23.52;55.98;101154.59;7398860;19;1813;-55
2023/07/10 03:59:46;;;;;;;;;;;;;;;23.38;56.60;101154.13;7397408;19;2119;-55
2023/07/10 04:02:14;;;;;;;;;;;;;;;23.36;57.47;101161.53;7396378;19;1853;-55
2023/07/10 04:04:43;;;;;;;;;;;;;;;23.55;57.01;101163.19;7397504;19;1536;-55
2023/07/10 04:07:11;;;;;;;;;;;;;;;23.62;57.38;101152.63;7397280;19;1420;-55
2023/07/10 04:09:39;;;;;;;;;;;;;;;23.69;57.20;101156.38;7396620;19;1461;-55
2023/07/10 04:12:08;;;;;;;;;;;;;;;23.73;57.03;101163.16;7396676;19;1289;-55
2023/07/10 04:14:39;;;;;;;;;;;;;;;23.78;57.45;101158.19;7395164;19;1155;-55
2023/07/10 04:17:08;;;;;;;;;;;;;;;23.81;57.17;101163.28;7396710;19;1205;-55
2023/07/10 04:19:36;;;;;;;;;;;;;;;23.86;57.45;101167.38;7396178;19;1894;-55
2023/07/10 04:22:04;;;;;;;;;;;;;;;23.91;57.70;101170.41;7392307;19;1247;-55
2023/07/10 04:24:32;;;;;;;;;;;;;;;23.93;57.47;101168.41;7392964;19;1852;-56
2023/07/10 04:27:01;;;;;;;;;;;;;;;23.96;57.54;101162.69;7394621;19;1547;-55
2023/07/10 04:29:29;;;;;;;;;;;;;;;24.07;57.71;101175.09;7393664;19;1506;-55
2023/07/10 04:32:00;;;;;;;;;;;;;;;24.05;57.82;101160.88;7392105;19;1397;-55
2023/07/10 04:34:28;;;;;;;;;;;;;;;24.24;57.55;101165.22;7397186;19;1564;-55
2023/07/10 04:36:56;;;;;;;;;;;;;;;24.20;57.47;101162.00;7396515;19;1438;-55
2023/07/10 04:39:25;;;;;;;;;;;;;;;24.15;57.79;101169.72;7396714;19;1850;-55
2023/07/10 04:41:53;;;;;;;;;;;;;;;24.05;58.01;101161.72;7396724;19;1455;-55
2023/07/10 04:44:23;;;;;;;;;;;;;;;24.04;57.89;101164.63;7395201;19;1856;-55
2023/07/10 04:46:51;;;;;;;;;;;;;;;24.10;57.70;101154.00;7396793;19;1381;-55
2023/07/10 04:49:22;;;;;;;;;;;;;;;24.05;58.14;101156.31;7395918;19;1916;-55
2023/07/10 04:51:51;;;;;;;;;;;;;;;24.24;57.91;101170.63;7396459;19;1826;-55
2023/07/10 04:54:19;;;;;;;;;;;;;;;24.06;58.64;101159.91;7394470;19;1829;-55
2023/07/10 04:56:47;;;;;;;;;;;;;;;23.99;59.50;101163.25;7395328;19;1726;-58
2023/07/10 04:59:15;;;;;;;;;;;;;;;24.08;59.83;101153.31;7396402;19;1389;-56
2023/07/10 05:01:44;;;;;;;;;;;;;;;24.15;59.63;101157.09;7389892;19;1394;-56
2023/07/10 05:04:12;;;;;;;;;;;;;;;24.25;59.71;101161.50;7388413;19;1852;-55
2023/07/10 05:06:43;;;;;;;;;;;;;;;24.26;59.40;101152.41;7390657;19;1212;-56
2023/07/10 05:09:11;;;;;;;;;;;;;;;24.22;59.67;101138.38;7391034;19;1555;-56
2023/07/10 05:11:39;;;;;;;;;;;;;;;24.14;59.62;101149.97;7392566;19;1068;-56
2023/07/10 05:14:07;;;;;;;;;;;;;;;24.28;59.53;101145.81;7391987;19;1882;-56
2023/07/10 05:16:36;;;;;;;;;;;;;;;24.27;59.58;101148.69;7390728;19;1858;-56
2023/07/10 05:19:05;;;;;;;;;;;;;;;24.18;59.65;101153.22;7391865;19;1717;-56
2023/07/10 05:21:33;;;;;;;;;;;;;;;24.18;59.88;101145.94;7393138;19;1374;-56
2023/07/10 05:24:04;;;;;;;;;;;;;;;24.20;60.07;101138.50;7392456;19;1841;-55
2023/07/10 05:26:32;;;;;;;;;;;;;;;24.10;60.05;101142.34;7395158;19;1789;-55
2023/07/10 05:29:00;;;;;;;;;;;;;;;23.96;60.47;101141.09;7390146;19;1547;-55
2023/07/10 05:31:29;;;;;;;;;;;;;;;24.00;60.90;101146.00;7392980;19;1407;-56
2023/07/10 05:33:57;;;;;;;;;;;;;;;23.97;60.99;101130.13;7395528;19;1809;-55
2023/07/10 05:36:25;;;;;;;;;;;;;;;23.95;61.26;101139.38;7401545;19;1937;-55
2023/07/10 05:38:54;;;;;;;;;;;;;;;24.18;61.05;101134.28;7397718;19;1487;-56
2023/07/10 05:41:25;;;;;;;;;;;;;;;24.18;60.73;101145.09;7402558;19;1385;-55
2023/07/10 05:43:53;;;;;;;;;;;;;;;24.43;60.35;101143.34;7397599;19;1850;-55
2023/07/10 05:46:21;;;;;;;;;;;;;;;24.63;59.97;101140.41;7401418;19;1500;-56
2023/07/10 05:48:50;;;;;;;;;;;;;;;24.52;60.97;101128.91;7398037;19;1653;-56
2023/07/10 05:51:18;;;;;;;;;;;;;;;24.46;61.92;101129.50;7396727;19;1970;-57
2023/07/10 05:53:46;;;;;;;;;;;;;;;24.45;62.50;101145.88;7400130;19;1180;-59
2023/07/10 05:56:14;;;;;;;;;;;;;;;24.63;61.98;101145.81;7400220;19;1184;-59
2023/07/10 05:58:45;;;;;;;;;;;;;;;24.53;62.71;101136.00;7399658;19;1294;-58
2023/07/10 06:01:14;;;;;;;;;;;;;;;24.48;63.26;101134.78;7393658;19;1548;-58
2023/07/10 06:03:42;;;;;;;;;;;;;;;24.61;63.42;101151.38;7397747;19;1818;-58
2023/07/10 06:06:10;;;;;;;;;;;;;;;24.57;63.69;101150.03;7395820;19;1453;-56
2023/07/10 06:08:39;;;;;;;;;;;;;;;24.60;64.05;101150.56;7394161;19;1534;-57
2023/07/10 06:11:08;;;;;;;;;;;;;;;24.47;63.53;101136.63;7394492;19;1449;-57
2023/07/10 06:13:36;;;;;;;;;;;;;;;24.47;63.28;101138.47;7396392;19;1935;-57
2023/07/10 06:16:10;;;;;;;;;;;;;;;24.52;62.76;101137.00;7397839;19;1706;-57
2023/07/10 06:18:39;;;;;;;;;;;;;;;24.54;62.96;101140.38;7396855;19;1690;-57
2023/07/10 06:21:08;;;;;;;;;;;;;;;24.54;62.45;101139.56;7395779;19;1821;-57
2023/07/10 06:23:36;;;;;;;;;;;;;;;24.54;62.64;101134.16;7393627;19;1862;-56
2023/07/10 06:26:05;;;;;;;;;;;;;;;24.53;62.63;101133.31;7395259;19;1212;-57
2023/07/10 06:28:34;;;;;;;;;;;;;;;24.56;62.50;101132.13;7395580;19;1582;-56
2023/07/10 06:31:03;;;;;;;;;;;;;;;24.57;62.46;101129.25;7395092;19;1397;-56
2023/07/10 06:33:34;;;;;;;;;;;;;;;24.64;62.70;101148.38;7395619;19;1619;-56
2023/07/10 06:36:04;;;;;;;;;;;;;;;24.61;63.13;101145.97;7397700;19;1564;-56
2023/07/10 06:38:32;;;;;;;;;;;;;;;24.63;62.95;101141.28;7397596;19;1028;-57
2023/07/10 06:41:00;;;;;;;;;;;;;;;24.64;62.95;101134.00;7400167;19;1984;-56
2023/07/10 06:43:29;;;;;;;;;;;;;;;24.61;62.85;101144.16;7397818;19;1857;-57
2023/07/10 06:45:58;;;;;;;;;;;;;;;24.61;62.64;101141.44;7395907;19;1214;-56
2023/07/10 06:48:26;;;;;;;;;;;;;;;24.67;62.63;101158.88;7398698;19;1563;-56
2023/07/10 06:50:58;;;;;;;;;;;;;;;24.65;62.79;101151.91;7398979;19;1207;-56
2023/07/10 06:53:27;;;;;;;;;;;;;;;24.67;62.61;101149.91;7398419;19;1540;-56
2023/07/10 06:55:56;;;;;;;;;;;;;;;24.64;62.66;101147.53;7398058;19;1235;-56
2023/07/10 06:58:24;;;;;;;;;;;;;;;24.68;62.64;101146.19;7398976;19;1551;-56
2023/07/10 07:00:52;;;;;;;;;;;;;;;24.68;62.84;101175.94;7397287;19;1231;-56
2023/07/10 07:03:20;;;;;;;;;;;;;;;24.67;62.87;101137.25;7398727;19;1849;-56
2023/07/10 07:05:49;;;;;;;;;;;;;;;24.69;62.59;101145.16;7399576;19;1812;-56
2023/07/10 07:08:20;;;;;;;;;;;;;;;24.70;62.82;101144.16;7400254;19;1047;-56
2023/07/10 07:10:49;;;;;;;;;;;;;;;24.66;63.00;101137.41;7400459;19;1028;-56
2023/07/10 07:13:17;;;;;;;;;;;;;;;24.68;62.71;101146.19;7397833;19;1574;-56
2023/07/10 07:15:45;;;;;;;;;;;;;;;24.69;62.56;101143.34;7397820;19;1703;-56
2023/07/10 07:18:13;;;;;;;;;;;;;;;24.64;62.67;101132.16;7397857;19;1793;-56
2023/07/10 07:20:42;;;;;;;;;;;;;;;24.68;62.75;101135.38;7399605;19;1730;-56
2023/07/10 07:23:10;;;;;;;;;;;;;;;24.67;62.74;101139.94;7398545;19;1531;-56
2023/07/10 07:25:42;;;;;;;;;;;;;;;24.69;62.97;101131.66;7397256;19;1859;-56
2023/07/10 07:28:10;;;;;;;;;;;;;;;24.68;63.10;101136.22;7398399;19;1520;-56
2023/07/10 07:30:39;;;;;;;;;;;;;;;24.69;62.80;101134.34;7397770;19;1943;-57
2023/07/10 07:33:08;;;;;;;;;;;;;;;24.67;62.93;101134.53;7398267;19;1254;-57
2023/07/10 07:35:39;;;;;;;;;;;;;;;24.67;62.94;101117.44;7397026;19;1196;-56
2023/07/10 07:38:07;;;;;;;;;;;;;;;24.69;62.77;101134.34;7397960;19;1540;-56
2023/07/10 07:40:35;;;;;;;;;;;;;;;24.65;63.00;101131.16;7397282;19;1472;-56
2023/07/10 07:43:06;;;;;;;;;;;;;;;24.73;62.81;101143.81;7395283;19;1754;-56
2023/07/10 07:45:35;;;;;;;;;;;;;;;24.70;62.68;101142.31;7394438;19;1855;-57
2023/07/10 07:48:03;;;;;;;;;;;;;;;24.70;62.80;101117.13;7398267;19;1844;-56
2023/07/10 07:50:31;;;;;;;;;;;;;;;24.70;62.77;101127.94;7397985;19;1903;-57
2023/07/10 07:53:00;;;;;;;;;;;;;;;24.71;62.75;101130.50;7398507;19;1848;-56
2023/07/10 07:55:28;;;;;;;;;;;;;;;24.73;62.56;101130.31;7397620;19;1781;-56
2023/07/10 07:57:56;;;;;;;;;;;;;;;24.67;62.78;101114.75;7399270;19;1039;-56
2023/07/10 08:00:27;;;;;;;;;;;;;;;24.72;62.63;101120.50;7397634;19;1857;-56
2023/07/10 08:02:55;;;;;;;;;;;;;;;24.73;62.73;101127.59;7396520;19;1881;-56
2023/07/10 08:05:24;;;;;;;;;;;;;;;24.69;63.06;101107.31;7394883;19;1892;-56
2023/07/10 08:07:52;;;;;;;;;;;;;;;24.69;62.60;101112.72;7398214;19;1719;-56
2023/07/10 08:10:21;;;;;;;;;;;;;;;24.74;62.70;101118.50;7396868;19;1549;-56
2023/07/10 08:12:49;;;;;;;;;;;;;;;24.72;63.02;101115.09;7396548;19;1195;-57
2023/07/10 08:15:17;;;;;;;;;;;;;;;24.74;62.74;101111.22;7397043;19;1099;-56
2023/07/10 08:17:48;;;;;;;;;;;;;;;24.69;62.74;101112.72;7397890;19;1592;-56
2023/07/10 08:20:17;;;;;;;;;;;;;;;24.72;62.57;101109.69;7397747;19;1738;-56
2023/07/10 08:22:45;;;;;;;;;;;;;;;24.71;62.87;101105.28;7397706;19;1873;-56
2023/07/10 08:25:13;;;;;;;;;;;;;;;24.75;62.86;101117.47;7398135;19;1847;-56
2023/07/10 08:27:43;;;;;;;;;;;;;;;24.71;62.81;101091.75;7397418;19;1829;-56
2023/07/10 08:30:12;;;;;;;;;;;;;;;24.72;62.65;101104.28;7398680;19;1070;-56
2023/07/10 08:32:40;;;;;;;;;;;;;;;24.72;62.40;101094.31;7398862;19;1012;-56
2023/07/10 08:35:11;;;;;;;;;;;;;;;24.73;62.83;101084.31;7397347;19;1901;-56
2023/07/10 08:37:40;;;;;;;;;;;;;;;24.71;62.96;101098.03;7397111;19;1833;-56
2023/07/10 08:40:12;;;;;;;;;;;;;;;24.73;62.75;101105.97;7397646;19;1792;-56
2023/07/10 08:42:41;;;;;;;;;;;;;;;24.72;62.46;101105.13;7397432;19;1813;-56
2023/07/10 08:45:14;;;;;;;;;;;;;;;24.77;62.82;101096.50;7397630;19;1853;-56
2023/07/10 08:47:46;;;;;;;;;;;;;;;24.76;62.81;101105.66;7393495;19;1829;-56
2023/07/10 08:50:19;;;;;;;;;;;;;;;24.74;62.72;101091.44;7396700;19;1493;-57
2023/07/10 08:52:51;;;;;;;;;;;;;;;24.72;62.95;101096.16;7396858;19;1536;-56
2023/07/10 08:55:29;;;;;;;;;;;;;;;24.72;62.83;101096.16;7397220;19;1228;-57
2023/07/10 08:57:59;;;;;;;;;;;;;;;24.77;62.83;101107.31;7396900;19;1947;-57
2023/07/10 09:00:29;;;;;;;;;;;;;;;24.74;62.75;101102.25;7395781;19;1813;-57
2023/07/10 09:03:01;;;;;;;;;;;;;;;24.73;63.09;101095.13;7398202;19;950;-56
2023/07/10 09:05:34;;;;;;;;;;;;;;;24.69;62.98;101097.34;7396638;19;1845;-56
2023/07/10 09:08:06;;;;;;;;;;;;;;;24.71;63.03;101108.84;7400309;19;1458;-56
2023/07/10 09:10:40;;;;;;;;;;;;;;;24.71;62.82;101103.44;7403709;19;1578;-56
2023/07/10 09:13:11;;;;;;;;;;;;;;;24.72;63.03;101088.91;7402451;19;1637;-56
2023/07/10 09:15:44;;;;;;;;;;;;;;;24.69;63.03;101085.66;7402316;19;1743;-56
2023/07/10 09:18:15;;;;;;;;;;;;;;;24.75;62.86;101093.13;7402810;19;1385;-56
2023/07/10 09:20:48;;;;;;;;;;;;;;;24.73;63.02;101085.19;7404319;19;1726;-57
2023/07/10 09:23:20;;;;;;;;;;;;;;;24.70;62.99;101073.84;7404636;19;1468;-57
2023/07/10 09:25:55;;;;;;;;;;;;;;;24.72;62.90;101077.25;7400435;19;1846;-56
2023/07/10 09:28:24;;;;;;;;;;;;;;;24.70;62.98;101079.25;7403348;19;1793;-56
2023/07/10 09:30:57;;;;;;;;;;;;;;;24.69;63.20;101072.16;7404443;19;1063;-56
2023/07/10 09:33:38;;;;;;;;;;;;;;;24.68;62.86;101067.78;7403546;19;1857;-57
2023/07/10 09:36:17;;;;;;;;;;;;;;;24.74;63.13;101083.31;7403374;19;1449;-56
2023/07/10 09:38:46;;;;;;;;;;;;;;;24.74;63.32;101064.41;7403256;19;1508;-56
2023/07/10 09:41:16;;;;;;;;;;;;;;;24.67;63.41;101058.81;7403898;19;1864;-56
2023/07/10 09:43:50;;;;;;;;;;;;;;;24.65;63.20;101059.97;7402059;19;1480;-56
2023/07/10 09:46:19;;;;;;;;;;;;;;;24.64;63.58;101063.69;7400965;19;1860;-56
2023/07/10 09:48:48;;;;;;;;;;;;;;;24.65;63.44;101050.03;7402435;19;1857;-56
2023/07/10 09:51:18;;;;;;;;;;;;;;;24.65;63.21;101049.16;7403351;19;1734;-56
2023/07/10 09:53:52;;;;;;;;;;;;;;;24.67;63.49;101047.13;7400399;19;1730;-56
2023/07/10 09:56:25;;;;;;;;;;;;;;;24.68;63.26;101043.44;7401457;19;1789;-56
2023/07/10 09:58:55;;;;;;;;;;;;;;;24.69;62.87;101031.59;7402152;19;1707;-56
2023/07/10 10:01:26;;;;;;;;;;;;;;;24.63;63.22;101034.97;7399255;19;1670;-56
2023/07/10 10:03:56;;;;;;;;;;;;;;;24.69;63.38;101040.56;7399931;19;1342;-56
2023/07/10 10:06:28;;;;;;;;;;;;;;;24.59;63.93;101027.19;7396879;19;1841;-56
2023/07/10 10:08:57;;;;;;;;;;;;;;;24.60;63.72;101028.88;7401932;19;1581;-55
2023/07/10 10:11:34;;;;;;;;;;;;;;;24.72;63.70;101024.00;7398713;19;1451;-58
2023/07/10 10:14:05;;;;;;;;;;;;;;;24.91;63.11;101021.97;7400949;19;1829;-59
2023/07/10 10:16:36;;;;;;;;;;;;;;;24.67;64.38;101025.50;7400925;19;1567;-58
2023/07/10 10:19:06;;;;;;;;;;;;;;;24.83;63.82;101012.00;7401582;19;1869;-59
2023/07/10 10:21:38;;;;;;;;;;;;;;;24.82;63.67;101013.00;7400998;19;1397;-58
2023/07/10 10:24:11;;;;;;;;;;;;;;;24.76;63.62;100997.47;7400619;19;1192;-59
2023/07/10 10:26:50;;;;;;;;;;;;;;;24.83;63.38;100998.50;7397485;19;1842;-59
2023/07/10 10:29:32;;;;;;;;;;;;;;;25.04;63.15;101008.78;7399673;19;1250;-59
2023/07/10 10:32:07;;;;;;;;;;;;;;;25.12;62.79;100997.13;7396258;19;1579;-59
2023/07/10 10:34:41;;;;;;;;;;;;;;;24.92;63.39;101018.25;7397790;19;1418;-59
2023/07/10 10:37:23;;;;;;;;;;;;;;;24.93;63.43;100996.47;7396794;19;1222;-60
2023/07/10 10:39:56;;;;;;;;;;;;;;;24.83;63.61;100986.81;7399548;19;1191;-60
2023/07/10 10:42:28;;;;;;;;;;;;;;;24.89;63.68;100987.00;7399817;19;1696;-60
2023/07/10 10:45:00;;;;;;;;;;;;;;;24.86;63.22;100981.91;7398961;19;1838;-60
2023/07/10 10:47:33;;;;;;;;;;;;;;;24.87;63.43;100978.19;7339380;19;12793;-61
2023/07/10 10:50:09;;;;;;;;;;;;;;;24.87;63.48;100959.28;7398374;19;1449;-60
2023/07/10 10:52:46;;;;;;;;;;;;;;;24.89;63.43;100975.31;7399087;19;1349;-60
2023/07/10 10:55:27;;;;;;;;;;;;;;;24.87;63.37;100975.50;7398546;19;1335;-60
2023/07/10 10:58:02;;;;;;;;;;;;;;;24.87;63.31;100971.91;7397509;19;1465;-60
2023/07/10 11:00:39;;;;;;;;;;;;;;;24.85;63.53;100964.00;7397006;19;1497;-61
2023/07/10 11:03:15;;;;;;;;;;;;;;;24.84;63.94;100965.00;7396373;19;1495;-60
2023/07/10 11:05:46;;;;;;;;;;;;;;;24.85;63.65;100953.19;7395485;19;1848;-60
2023/07/10 11:08:20;;;;;;;;;;;;;;;24.86;63.95;100965.69;7399344;19;1074;-60
2023/07/10 11:10:50;;;;;;;;;;;;;;;24.86;63.63;100965.69;7398324;19;1033;-60
2023/07/10 11:13:28;;;;;;;;;;;;;;;25.05;63.42;100960.91;7396388;19;1433;-60
2023/07/10 11:15:57;;;;;;;;;;;;;;;24.91;63.73;100941.69;7396431;19;1445;-60
2023/07/10 11:18:26;;;;;;;;;;;;;;;24.86;63.84;100952.16;7395081;19;1540;-60
2023/07/10 11:20:54;;;;;;;;;;;;;;;24.83;63.93;100949.81;7396279;19;1521;-60
2023/07/10 11:23:39;;;;;;;;;;;;;;;24.84;63.89;100942.53;7395705;19;1296;-60
2023/07/10 11:26:10;;;;;;;;;;;;;;;24.81;63.84;100938.31;7395713;19;1875;-60
2023/07/10 11:28:39;;;;;;;;;;;;;;;24.82;64.13;100931.88;7396204;19;1358;-59
2023/07/10 11:31:22;;;;;;;;;;;;;;;24.80;63.82;100939.31;7395355;19;1566;-59
2023/07/10 11:33:54;;;;;;;;;;;;;;;24.87;64.07;100942.16;7397030;19;1560;-59
2023/07/10 11:36:38;;;;;;;;;;;;;;;24.94;63.62;100938.63;7396904;19;1446;-60
2023/07/10 11:39:20;;;;;;;;;;;;;;;25.13;63.18;100933.88;7395610;19;1243;-60
2023/07/10 11:42:03;;;;;;;;;;;;;;;25.09;63.52;100937.91;7396350;19;1204;-60
2023/07/10 11:44:34;;;;;;;;;;;;;;;25.07;63.62;100929.13;7392952;19;1493;-60
2023/07/10 11:47:04;;;;;;;;;;;;;;;25.08;63.68;100933.53;7394407;19;1861;-60
2023/07/10 11:49:45;;;;;;;;;;;;;;;24.93;63.79;100926.13;7393901;19;1140;-61
2023/07/10 11:52:28;;;;;;;;;;;;;;;24.92;64.06;100924.41;7395960;19;1123;-60
2023/07/10 11:55:08;;;;;;;;;;;;;;;24.89;63.94;100915.78;7396017;19;1090;-60
2023/07/10 11:57:37;;;;;;;;;;;;;;;24.94;63.86;100908.84;7396606;19;1104;-61
2023/07/10 12:00:06;;;;;;;;;;;;;;;24.93;63.91;100909.88;7393457;19;1274;-60
2023/07/10 12:02:39;;;;;;;;;;;;;;;24.90;63.93;100914.78;7395149;19;1199;-60
2023/07/10 12:05:15;;;;;;;;;;;;;;;25.01;64.37;100893.63;7393300;19;1845;-60
2023/07/10 12:07:53;;;;;;;;;;;;;;;25.00;64.09;100893.81;7394574;19;1397;-60
2023/07/10 12:10:25;;;;;;;;;;;;;;;25.02;63.92;100905.28;7397677;19;1039;-60
2023/07/10 12:12:53;;;;;;;;;;;;;;;25.12;63.71;100894.28;7395359;19;1601;-60
2023/07/10 12:15:22;;;;;;;;;;;;;;;24.88;64.48;100909.53;7394437;19;1440;-60
2023/07/10 12:17:51;;;;;;;;;;;;;;;25.16;63.68;100911.88;7395441;19;1599;-58
2023/07/10 12:20:24;;;;;;;;;;;;;;;25.06;63.93;100903.09;7393554;19;1649;-58
2023/07/10 12:22:54;;;;;;;;;;;;;;;24.89;64.72;100889.59;7394571;19;1446;-59
2023/07/10 12:25:25;;;;;;;;;;;;;;;24.96;64.25;100889.75;7391438;19;1841;-59
2023/07/10 12:27:53;;;;;;;;;;;;;;;25.04;64.52;100881.63;7396303;19;1029;-58
2023/07/10 12:30:23;;;;;;;;;;;;;;;24.98;64.41;100883.16;7394403;19;1873;-58
2023/07/10 12:32:53;;;;;;;;;;;;;;;24.89;64.53;100886.03;7394876;19;1813;-58
2023/07/10 12:35:28;;;;;;;;;;;;;;;24.89;64.82;100859.84;7394403;19;1912;-58
2023/07/10 12:37:56;;;;;;;;;;;;;;;24.87;64.53;100869.13;7394613;19;1894;-58
2023/07/10 12:40:28;;;;;;;;;;;;;;;24.86;64.66;100865.59;7393194;19;1587;-57
2023/07/10 12:42:57;;;;;;;;;;;;;;;24.95;64.23;100853.75;7397387;19;1460;-58
2023/07/10 12:45:33;;;;;;;;;;;;;;;25.18;63.26;100858.41;7401635;19;1866;-58
2023/07/10 12:48:07;;;;;;;;;;;;;;;25.10;63.78;100861.16;7401353;19;1559;-57
2023/07/10 12:50:42;;;;;;;;;;;;;;;25.19;63.59;100852.00;7399057;19;1500;-57
2023/07/10 12:53:17;;;;;;;;;;;;;;;25.20;63.48;100854.50;7401896;19;1282;-57
2023/07/10 12:55:48;;;;;;;;;;;;;;;25.23;63.50;100853.38;7401201;19;1441;-57
2023/07/10 12:58:17;;;;;;;;;;;;;;;25.24;63.52;100846.91;7401115;19;1607;-58
2023/07/10 13:00:50;;;;;;;;;;;;;;;25.44;63.26;100862.75;7399207;19;1544;-57
2023/07/10 13:03:22;;;;;;;;;;;;;;;25.51;62.94;100859.16;7402075;19;1516;-57